TimeEST,TemperatureF,Dew PointF,Humidity,Sea Level PressureIn,VisibilityMPH,Wind Direction,Wind SpeedMPH,Gust SpeedMPH,PrecipitationIn,Events,Conditions,WindDirDegrees,DateUTC
12:11 AM,15.8,15.8,100,30.08,1.5,Calm,Calm,-,N/A,Snow,Light Snow,0,2013-01-24 05:11:00
12:31 AM,15.8,14.0,93,30.08,2.0,NW,4.6,-,N/A,Snow,Light Snow,320,2013-01-24 05:31:00
12:51 AM,14.0,12.2,93,30.09,2.5,NNW,3.5,-,N/A,Snow,Light Snow,330,2013-01-24 05:51:00
1:11 AM,14.0,12.2,93,30.10,10.0,NW,3.5,-,N/A,Snow,Light Snow,320,2013-01-24 06:11:00
1:31 AM,14.0,10.4,86,30.11,10.0,NW,4.6,-,N/A,,Mostly Cloudy,320,2013-01-24 06:31:00
1:51 AM,14.0,10.4,86,30.13,10.0,NW,4.6,-,N/A,,Mostly Cloudy,320,2013-01-24 06:51:00
2:11 AM,12.2,10.4,92,30.14,10.0,NW,5.8,-,N/A,,Overcast,310,2013-01-24 07:11:00
2:31 AM,14.0,10.4,86,30.16,10.0,NW,5.8,-,N/A,,Overcast,320,2013-01-24 07:31:00
2:54 AM,12.2,10.4,92,30.18,10.0,NNW,6.9,-,N/A,,Scattered Clouds,330,2013-01-24 07:54:00
3:14 AM,12.2,8.6,85,30.20,10.0,NNW,8.1,-,N/A,,Clear,330,2013-01-24 08:14:00
3:34 AM,12.2,8.6,85,30.22,10.0,NNW,8.1,-,N/A,,Clear,340,2013-01-24 08:34:00
3:54 AM,12.2,8.6,85,30.23,10.0,NNW,8.1,-,N/A,,Clear,330,2013-01-24 08:54:00
4:14 AM,12.2,6.8,79,30.25,10.0,NW,5.8,-,N/A,,Clear,310,2013-01-24 09:14:00
4:31 AM,10.4,6.8,85,30.25,10.0,NNW,5.8,-,N/A,Snow,Light Snow,330,2013-01-24 09:31:00
4:52 AM,12.2,6.8,79,30.27,10.0,NW,8.1,-,N/A,,Clear,320,2013-01-24 09:52:00
5:12 AM,12.2,6.8,79,-9999,10.0,NW,8.1,-,N/A,,Clear,320,2013-01-24 10:12:00
5:32 AM,10.4,6.8,85,30.31,10.0,WNW,8.1,-,N/A,,Clear,300,2013-01-24 10:32:00
5:52 AM,10.4,6.8,85,30.32,10.0,WNW,10.4,-,N/A,,Clear,300,2013-01-24 10:52:00
6:12 AM,10.4,6.8,85,30.34,10.0,NW,9.2,-,N/A,,Scattered Clouds,310,2013-01-24 11:12:00
6:32 AM,10.4,6.8,85,30.35,10.0,NW,8.1,-,N/A,,Scattered Clouds,310,2013-01-24 11:32:00
6:52 AM,10.4,6.8,85,30.37,10.0,NW,10.4,-,N/A,,Mostly Cloudy,320,2013-01-24 11:52:00
7:12 AM,8.6,6.8,92,30.38,10.0,NW,9.2,-,N/A,,Scattered Clouds,320,2013-01-24 12:12:00
7:32 AM,8.6,6.8,92,30.40,10.0,NNW,5.8,-,N/A,,Scattered Clouds,340,2013-01-24 12:32:00
7:52 AM,8.6,6.8,92,30.41,10.0,NNW,8.1,-,N/A,,Mostly Cloudy,330,2013-01-24 12:52:00
8:12 AM,10.4,6.8,85,30.42,10.0,NNW,8.1,-,N/A,,Scattered Clouds,340,2013-01-24 13:12:00
8:33 AM,10.4,6.8,85,30.44,10.0,North,9.2,-,N/A,,Scattered Clouds,350,2013-01-24 13:33:00
8:53 AM,10.4,6.8,85,30.45,10.0,North,8.1,-,N/A,,Scattered Clouds,350,2013-01-24 13:53:00
9:13 AM,12.2,6.8,79,30.47,10.0,North,6.9,-,N/A,,Clear,350,2013-01-24 14:13:00
9:33 AM,12.2,6.8,79,30.48,10.0,North,9.2,-,N/A,,Clear,360,2013-01-24 14:33:00
9:53 AM,12.2,8.6,85,30.50,10.0,North,8.1,-,N/A,,Clear,360,2013-01-24 14:53:00
10:13 AM,14.0,8.6,79,30.51,10.0,North,6.9,-,N/A,,Clear,360,2013-01-24 15:13:00
10:33 AM,15.8,8.6,73,30.53,10.0,North,9.2,-,N/A,,Clear,360,2013-01-24 15:33:00
10:53 AM,15.8,8.6,73,30.54,10.0,North,6.9,-,N/A,,Clear,360,2013-01-24 15:53:00
11:13 AM,17.6,8.6,68,30.56,10.0,NNW,6.9,-,N/A,,Clear,330,2013-01-24 16:13:00
11:34 AM,17.6,8.6,68,30.56,10.0,NNW,6.9,-,N/A,,Clear,340,2013-01-24 16:34:00
11:54 AM,19.4,8.6,63,30.56,10.0,North,6.9,-,N/A,,Clear,350,2013-01-24 16:54:00
12:14 PM,19.4,6.8,58,30.54,10.0,North,3.5,-,N/A,,Clear,360,2013-01-24 17:14:00
12:34 PM,19.4,6.8,58,30.54,10.0,NNW,4.6,-,N/A,,Clear,340,2013-01-24 17:34:00
12:54 PM,19.4,6.8,58,30.54,10.0,North,4.6,-,N/A,,Clear,360,2013-01-24 17:54:00
1:14 PM,19.4,6.8,58,30.53,10.0,Calm,Calm,-,N/A,,Clear,0,2013-01-24 18:14:00
1:34 PM,19.4,5.0,54,30.53,10.0,NNW,3.5,-,N/A,,Clear,330,2013-01-24 18:34:00
1:54 PM,19.4,5.0,54,30.53,10.0,Calm,Calm,-,N/A,,Clear,0,2013-01-24 18:54:00
2:14 PM,21.2,6.8,54,30.53,10.0,West,8.1,-,N/A,,Clear,270,2013-01-24 19:14:00
2:35 PM,21.2,5.0,50,30.53,10.0,WNW,6.9,-,N/A,,Clear,290,2013-01-24 19:35:00
2:55 PM,21.2,1.4,42,30.53,10.0,NNW,8.1,-,N/A,,Clear,330,2013-01-24 19:55:00
3:15 PM,21.2,3.2,46,30.54,10.0,NNW,5.8,-,N/A,,Clear,340,2013-01-24 20:15:00
3:35 PM,21.2,5.0,50,30.53,10.0,NW,6.9,-,N/A,,Clear,320,2013-01-24 20:35:00
3:55 PM,19.4,5.0,54,30.54,10.0,NW,4.6,-,N/A,,Clear,310,2013-01-24 20:55:00
4:15 PM,19.4,5.0,54,30.54,10.0,WNW,4.6,-,N/A,,Clear,290,2013-01-24 21:15:00
4:35 PM,19.4,6.8,58,30.54,10.0,West,6.9,-,N/A,,Clear,280,2013-01-24 21:35:00
4:55 PM,19.4,6.8,58,30.54,10.0,WNW,4.6,-,N/A,,Clear,290,2013-01-24 21:55:00
5:15 PM,17.6,6.8,63,30.54,10.0,WNW,5.8,-,N/A,,Clear,290,2013-01-24 22:15:00
5:36 PM,17.6,6.8,63,30.55,10.0,WNW,4.6,-,N/A,,Clear,290,2013-01-24 22:36:00
5:51 PM,15.8,6.8,68,30.54,10.0,West,3.5,-,N/A,,Clear,280,2013-01-24 22:51:00
6:11 PM,15.8,6.8,68,30.54,10.0,Calm,Calm,-,N/A,,Clear,0,2013-01-24 23:11:00
6:31 PM,14.0,8.6,79,30.54,10.0,Calm,Calm,-,N/A,,Clear,0,2013-01-24 23:31:00
6:51 PM,14.0,8.6,79,30.54,10.0,Calm,Calm,-,N/A,,Clear,0,2013-01-24 23:51:00
7:11 PM,14.0,8.6,79,30.54,10.0,Calm,Calm,-,N/A,,Clear,0,2013-01-25 00:11:00
7:31 PM,14.0,8.6,79,30.54,10.0,Calm,Calm,-,N/A,,Clear,0,2013-01-25 00:31:00
7:51 PM,14.0,6.8,73,30.53,7.0,Calm,Calm,-,N/A,,Clear,0,2013-01-25 00:51:00
8:11 PM,12.2,8.6,85,30.52,10.0,Calm,Calm,-,N/A,,Clear,0,2013-01-25 01:11:00
8:52 PM,14.0,8.6,79,30.51,10.0,Calm,Calm,-,N/A,,Clear,0,2013-01-25 01:52:00
9:12 PM,14.0,8.6,79,30.51,10.0,Calm,Calm,-,N/A,,Clear,0,2013-01-25 02:12:00
9:52 PM,15.8,8.6,73,30.50,10.0,Calm,Calm,-,N/A,,Clear,0,2013-01-25 02:52:00
10:52 PM,15.8,8.6,73,30.49,10.0,Calm,Calm,-,N/A,,Clear,0,2013-01-25 03:52:00
11:12 PM,15.8,10.4,79,30.49,10.0,Calm,Calm,-,N/A,,Clear,0,2013-01-25 04:12:00
11:33 PM,15.8,10.4,79,30.48,10.0,Calm,Calm,-,N/A,,Scattered Clouds,0,2013-01-25 04:33:00
11:53 PM,15.8,8.6,73,30.48,10.0,Calm,Calm,-,N/A,,Mostly Cloudy,0,2013-01-25 04:53:00